Cacapava, Brazil
Current Conditions -  °F | °C
As of 9:00 AM on Saturday 25 Oct 2014 (Local Time) from SBSJ Reporting Station
Clear Clear  
Wind Chill: 73°   Ceiling: Unl
Heat Index: 73°   Visibility: 5mi
Dew Point: 63°   Wind: 3mph
Humidity: 69%   Direction: 250°WSW
Pressure: 30.03"   Gusts: NA
Location:  23.1°S, 45.71°W
Report Text: SBSJ 251100Z 25003KT 8000 NSC 23/17 Q1017
Loading
Personal Weather Stations






























Interactive Weather Map
Tropical Storm Tracking
New forecast layout! Learn more

10-Day Weather Forecast

Advertisements
Track Severe Weather on mobile